Time;durP1;ratioP1;P1;durP2;ratioP2;P2;SDS_P1;SDS_P2;PMS_P1;PMS_P2;Temp;Humidity;BMP_temperature;BMP_pressure;BME280_temperature;BME280_humidity;BME280_pressure;Samples;Min_cycle;Max_cycle;Signal;HPM_P1;HPM_P2
2024/01/18 00:01:26;;;;;;;12.10;5.47;;;;;;;-3.01;95.13;98744.00;4996977;28;20121;-95
2024/01/18 00:03:52;;;;;;;11.63;5.95;;;;;;;-3.13;95.14;98750.22;4996131;28;20089;-96
2024/01/18 00:06:17;;;;;;;13.65;6.22;;;;;;;-3.13;95.19;98739.31;5021020;28;20029;-95
2024/01/18 00:08:42;;;;;;;11.57;6.10;;;;;;;-3.05;95.05;98748.31;4997055;28;20026;-95
2024/01/18 00:11:08;;;;;;;9.05;5.53;;;;;;;-3.08;94.94;98752.63;4997381;28;20049;-96
2024/01/18 00:13:33;;;;;;;11.50;5.70;;;;;;;-3.08;95.08;98758.47;5030755;28;20033;-96
2024/01/18 00:15:59;;;;;;;10.88;6.28;;;;;;;-3.16;94.53;98760.41;4997583;28;20060;-94
2024/01/18 00:18:24;;;;;;;12.98;5.90;;;;;;;-3.19;93.39;98763.03;4996804;28;20472;-95
2024/01/18 00:20:49;;;;;;;8.38;4.95;;;;;;;-3.24;92.90;98763.16;4997057;28;20034;-94
2024/01/18 00:23:15;;;;;;;7.97;5.20;;;;;;;-3.18;91.52;98772.25;5029893;28;20022;-95
2024/01/18 00:25:40;;;;;;;8.80;5.38;;;;;;;-3.15;91.55;98776.38;4996553;28;20481;-95
2024/01/18 00:28:05;;;;;;;9.23;5.30;;;;;;;-3.29;91.61;98771.69;5029429;28;20022;-95
2024/01/18 00:30:31;;;;;;;9.75;6.22;;;;;;;-3.20;92.01;98773.97;4996951;28;20142;-95
2024/01/18 00:32:56;;;;;;;11.15;6.35;;;;;;;-3.26;93.17;98786.78;4996841;28;20549;-95
2024/01/18 00:35:21;;;;;;;23.23;8.65;;;;;;;-3.33;92.28;98773.50;5029685;28;20014;-96
2024/01/18 00:37:47;;;;;;;12.50;6.40;;;;;;;-3.33;92.50;98773.50;5031678;28;20026;-94
2024/01/18 00:40:16;;;;;;;9.70;5.68;;;;;;;-3.35;92.56;98779.47;4996716;28;20030;-94
2024/01/18 00:42:41;;;;;;;9.55;5.88;;;;;;;-3.41;91.18;98779.59;4996321;28;20029;-96
2024/01/18 00:45:07;;;;;;;8.52;5.82;;;;;;;-3.45;89.75;98779.69;4997414;28;20125;-96
2024/01/18 00:47:33;;;;;;;7.97;4.78;;;;;;;-3.36;87.18;98780.34;4997529;28;20022;-96
2024/01/18 00:49:58;;;;;;;7.65;5.05;;;;;;;-3.54;87.85;98790.03;5029864;28;20022;-95
2024/01/18 00:52:27;;;;;;;9.60;5.00;;;;;;;-3.40;86.96;98796.41;4997151;28;20499;-96
2024/01/18 00:54:52;;;;;;;9.85;5.55;;;;;;;-3.57;87.28;98787.59;4996575;28;20022;-96
2024/01/18 00:57:18;;;;;;;7.88;5.10;;;;;;;-3.54;86.93;98796.78;5029236;28;20022;-96
2024/01/18 00:59:43;;;;;;;9.88;5.35;;;;;;;-3.54;87.51;98801.81;4996384;28;20484;-96
2024/01/18 01:02:08;;;;;;;10.18;6.32;;;;;;;-3.59;86.42;98813.72;5029806;28;20024;-95
2024/01/18 01:04:34;;;;;;;9.95;5.43;;;;;;;-3.57;87.44;98815.34;4997188;28;20480;-95
2024/01/18 01:07:00;;;;;;;8.27;5.35;;;;;;;-3.62;88.69;98811.28;5030463;28;20037;-96
2024/01/18 01:09:25;;;;;;;11.00;5.75;;;;;;;-3.55;89.33;98832.97;5031189;28;20038;-95
2024/01/18 01:11:52;;;;;;;9.63;5.80;;;;;;;-3.63;89.79;98833.16;4999553;28;20026;-96
2024/01/18 01:14:17;;;;;;;9.25;5.38;;;;;;;-3.58;87.70;98838.91;5000655;28;20090;-94
2024/01/18 01:16:43;;;;;;;14.70;5.53;;;;;;;-3.50;86.87;98837.00;5000432;28;20030;-94
2024/01/18 01:19:08;;;;;;;9.00;4.82;;;;;;;-3.55;86.38;98836.31;5032550;28;20040;-95
2024/01/18 01:21:34;;;;;;;8.02;5.00;;;;;;;-3.60;87.17;98834.78;5032833;28;20025;-95
2024/01/18 01:23:59;;;;;;;7.68;5.00;;;;;;;-3.63;87.71;98848.28;4999893;28;20117;-96
2024/01/18 01:26:25;;;;;;;9.60;5.03;;;;;;;-3.58;87.80;98854.03;5033138;28;20025;-96
2024/01/18 01:28:50;;;;;;;10.25;6.18;;;;;;;-3.49;87.85;98868.94;4999892;28;20105;-96
2024/01/18 01:31:16;;;;;;;10.93;7.03;;;;;;;-3.32;89.96;98870.19;4999768;28;20438;-96
2024/01/18 01:33:44;;;;;;;13.35;7.90;;;;;;;-3.41;92.16;98870.41;4999599;28;20026;-96
2024/01/18 01:36:10;;;;;;;13.57;7.30;;;;;;;-3.30;92.82;98876.03;4999795;28;20029;-95
2024/01/18 01:38:35;;;;;;;13.52;7.35;;;;;;;-3.42;93.60;98879.69;5033434;28;20403;-96
2024/01/18 01:41:02;;;;;;;11.95;6.72;;;;;;;-3.39;93.87;98883.81;4999858;28;20076;-96
2024/01/18 01:43:28;;;;;;;11.00;7.50;;;;;;;-3.36;93.82;98883.75;5032235;28;20523;-96
2024/01/18 01:45:53;;;;;;;14.43;7.75;;;;;;;-3.25;93.67;98881.75;4999431;28;20075;-95
2024/01/18 01:48:19;;;;;;;12.68;7.22;;;;;;;-3.22;93.85;98886.72;4999717;28;20178;-96
2024/01/18 01:50:46;;;;;;;11.45;6.70;;;;;;;-3.28;93.64;98890.25;5000174;28;20029;-96
2024/01/18 01:53:14;;;;;;;12.35;7.72;;;;;;;-3.30;94.59;98893.69;5032751;28;20022;-96
2024/01/18 01:55:41;;;;;;;10.40;6.97;;;;;;;-3.33;95.18;98893.75;5036344;28;20022;-96
2024/01/18 01:58:08;;;;;;;12.02;7.85;;;;;;;-3.29;95.09;98905.41;5037438;28;20030;-96
2024/01/18 02:00:34;;;;;;;9.70;6.78;;;;;;;-3.34;94.77;98895.47;5004388;28;20025;-96
2024/01/18 02:02:59;;;;;;;9.60;6.63;;;;;;;-3.38;93.51;98900.63;5004688;28;20038;-96
2024/01/18 02:05:26;;;;;;;12.65;6.78;;;;;;;-3.46;93.84;98903.34;5035009;28;20514;-96
2024/01/18 02:07:52;;;;;;;14.90;6.68;;;;;;;-3.42;93.47;98906.59;5035663;28;20383;-96
2024/01/18 02:10:17;;;;;;;10.52;6.40;;;;;;;-3.56;93.52;98905.28;5035748;28;20026;-96
2024/01/18 02:12:44;;;;;;;7.38;5.47;;;;;;;-3.46;93.84;98909.22;5037733;28;20036;-94
2024/01/18 02:15:10;;;;;;;9.00;6.18;;;;;;;-3.46;92.01;98909.22;5053429;28;20030;-94
2024/01/18 02:17:35;;;;;;;7.18;5.95;;;;;;;-3.48;92.42;98915.97;5054089;28;20017;-95
2024/01/18 02:20:01;;;;;;;9.48;5.55;;;;;;;-3.56;92.55;98911.97;5053501;28;20040;-95
2024/01/18 02:22:28;;;;;;;9.05;5.90;;;;;;;-3.56;91.57;98919.53;5052475;28;20078;-94
2024/01/18 02:25:27;;;;;;;10.13;5.30;;;;;;;-3.47;92.14;98926.88;5020674;28;20037;-93
2024/01/18 02:27:56;;;;;;;9.10;5.15;;;;;;;-3.48;88.98;98930.28;5017231;28;20022;-94
2024/01/18 02:30:22;;;;;;;6.65;4.20;;;;;;;-3.51;89.28;98946.34;5053314;28;19998;-93
2024/01/18 02:32:48;;;;;;;11.45;4.97;;;;;;;-3.55;89.63;98948.97;5052796;28;20049;-95
2024/01/18 02:35:14;;;;;;;8.23;5.15;;;;;;;-3.60;89.65;98959.16;5017545;28;20065;-96
2024/01/18 02:37:40;;;;;;;9.10;4.10;;;;;;;-3.61;89.58;98959.19;5053341;28;20081;-94
2024/01/18 02:40:06;;;;;;;6.65;3.85;;;;;;;-3.65;88.47;98958.44;5020647;28;20060;-95
2024/01/18 02:42:32;;;;;;;5.10;3.72;;;;;;;-3.66;87.85;98964.31;5052288;28;20014;-94
2024/01/18 02:44:58;;;;;;;5.68;3.28;;;;;;;-3.75;87.38;98962.88;5019740;28;20017;-94
2024/01/18 02:47:24;;;;;;;7.25;4.00;;;;;;;-3.71;87.77;98973.69;5019891;28;20037;-94
2024/01/18 02:49:50;;;;;;;6.70;3.85;;;;;;;-3.71;87.25;98978.72;5020035;28;20097;-94
2024/01/18 02:52:15;;;;;;;5.32;3.50;;;;;;;-3.75;87.28;98972.13;5019332;28;20010;-95
2024/01/18 02:54:41;;;;;;;4.63;3.15;;;;;;;-3.75;86.64;98983.03;5019755;28;20013;-95
2024/01/18 02:57:06;;;;;;;4.70;2.72;;;;;;;-3.77;85.85;98982.22;5019551;28;20021;-94
2024/01/18 02:59:31;;;;;;;4.55;3.00;;;;;;;-3.72;83.89;98985.47;5013950;28;20086;-94
2024/01/18 03:01:57;;;;;;;3.92;2.47;;;;;;;-3.79;82.71;98976.38;5018774;28;20033;-94
2024/01/18 03:04:22;;;;;;;3.97;2.83;;;;;;;-3.79;83.92;98989.00;5018652;28;20024;-95
2024/01/18 03:06:48;;;;;;;3.08;2.47;;;;;;;-3.81;84.90;98988.19;5018476;28;20085;-93
2024/01/18 03:09:14;;;;;;;3.03;2.17;;;;;;;-3.80;85.21;98996.59;5018521;28;20045;-96
2024/01/18 03:11:39;;;;;;;3.15;2.10;;;;;;;-3.82;85.40;99001.69;5018634;28;20014;-95
2024/01/18 03:14:05;;;;;;;3.88;2.35;;;;;;;-3.80;84.96;99004.16;5019091;28;20029;-94
2024/01/18 03:16:30;;;;;;;4.72;2.83;;;;;;;-3.82;85.31;99010.94;5013170;28;20018;-96
2024/01/18 03:18:56;;;;;;;3.78;2.10;;;;;;;-3.84;85.26;99008.44;4999758;28;20026;-95
2024/01/18 03:21:21;;;;;;;2.72;2.13;;;;;;;-3.90;85.33;99004.38;5000114;28;20038;-96
2024/01/18 03:23:47;;;;;;;3.88;2.40;;;;;;;-3.92;86.29;99005.25;4999532;28;20129;-95
2024/01/18 03:26:12;;;;;;;4.97;2.22;;;;;;;-3.91;86.27;99012.78;4998707;28;20072;-96
2024/01/18 03:28:38;;;;;;;4.47;2.10;;;;;;;-3.96;86.64;99016.25;4999514;28;20025;-96
2024/01/18 03:31:03;;;;;;;4.90;2.20;;;;;;;-3.92;86.48;99011.13;4999141;28;20358;-96
2024/01/18 03:33:28;;;;;;;5.03;2.05;;;;;;;-3.95;86.67;99018.75;4998715;28;20121;-96
2024/01/18 03:35:54;;;;;;;2.40;1.98;;;;;;;-4.01;85.78;99025.63;4999212;28;20030;-96
2024/01/18 03:38:20;;;;;;;4.53;2.10;;;;;;;-3.98;85.53;99030.59;4999274;28;20030;-96
2024/01/18 03:40:46;;;;;;;3.92;2.17;;;;;;;-3.99;85.76;99033.97;4999282;28;20088;-95
2024/01/18 03:43:12;;;;;;;5.65;2.38;;;;;;;-3.96;85.66;99044.81;4999673;28;20053;-94
2024/01/18 03:45:38;;;;;;;2.92;1.75;;;;;;;-4.00;86.04;99037.34;4999422;28;20068;-95
2024/01/18 03:48:03;;;;;;;2.63;1.98;;;;;;;-4.01;85.76;99030.66;4999703;28;20042;-95
2024/01/18 03:50:29;;;;;;;4.43;1.98;;;;;;;-4.07;85.87;99034.16;4999446;28;20026;-96
2024/01/18 03:52:54;;;;;;;3.38;2.15;;;;;;;-4.07;86.72;99025.72;4998980;28;20050;-96
2024/01/18 03:55:21;;;;;;;3.60;2.10;;;;;;;-4.09;86.57;99030.81;4998890;28;20065;-96
2024/01/18 03:57:46;;;;;;;5.28;2.33;;;;;;;-4.07;86.08;99049.25;4998987;28;20469;-96
2024/01/18 04:00:12;;;;;;;2.95;2.13;;;;;;;-4.06;86.25;99053.44;4998903;28;20026;-95
2024/01/18 04:02:38;;;;;;;6.68;2.60;;;;;;;-4.12;86.28;99053.53;4999011;28;20054;-95
2024/01/18 04:05:04;;;;;;;6.38;2.10;;;;;;;-4.12;86.88;99053.53;4999025;28;20053;-96
2024/01/18 04:07:30;;;;;;;4.53;2.53;;;;;;;-4.12;84.92;99058.56;4998762;28;20010;-96
2024/01/18 04:09:56;;;;;;;3.97;2.47;;;;;;;-4.19;84.59;99062.09;4999277;28;20018;-96
2024/01/18 04:12:22;;;;;;;6.47;3.13;;;;;;;-4.21;85.26;99061.31;4998752;28;20114;-96
2024/01/18 04:14:47;;;;;;;6.97;2.80;;;;;;;-4.20;86.15;99061.25;4998321;28;20166;-96
2024/01/18 04:17:13;;;;;;;6.22;3.20;;;;;;;-4.23;85.83;99065.53;4998966;28;20026;-96
2024/01/18 04:19:39;;;;;;;4.30;2.65;;;;;;;-4.17;86.29;99078.00;4998498;28;20033;-96
2024/01/18 04:22:05;;;;;;;5.45;3.28;;;;;;;-4.10;86.32;99082.06;4998870;28;20204;-95
2024/01/18 04:24:31;;;;;;;6.72;3.72;;;;;;;-4.14;86.57;99080.47;4998682;28;20204;-95
2024/01/18 04:26:56;;;;;;;6.15;3.83;;;;;;;-4.12;86.75;99087.16;4998503;28;20116;-95
2024/01/18 04:29:23;;;;;;;5.93;3.53;;;;;;;-4.18;86.58;99092.28;4997777;28;20030;-96
2024/01/18 04:31:48;;;;;;;6.97;3.95;;;;;;;-4.20;86.57;99091.47;4998002;28;20461;-96
2024/01/18 04:34:14;;;;;;;6.28;3.63;;;;;;;-4.25;87.53;99092.44;4999665;28;20050;-96
2024/01/18 04:36:39;;;;;;;6.65;4.03;;;;;;;-4.26;88.30;99091.63;5000722;28;20037;-96
2024/01/18 04:39:05;;;;;;;6.15;3.22;;;;;;;-4.34;88.90;99111.06;5000046;28;20477;-96
2024/01/18 04:41:31;;;;;;;11.38;6.25;;;;;;;-4.66;92.09;99106.59;4999661;28;20018;-96
2024/01/18 04:43:57;;;;;;;9.60;6.13;;;;;;;-4.52;92.60;99107.19;4999482;28;20026;-96
2024/01/18 04:46:24;;;;;;;7.82;5.93;;;;;;;-4.47;92.52;99118.00;5019404;28;20079;-95
2024/01/18 04:48:49;;;;;;;9.90;5.47;;;;;;;-4.66;92.10;99121.69;5001131;28;20018;-95
2024/01/18 04:51:15;;;;;;;9.63;6.90;;;;;;;-4.57;93.32;99126.59;5001281;28;20030;-95
2024/01/18 04:53:40;;;;;;;11.65;6.85;;;;;;;-4.70;94.90;99115.06;5001647;28;20022;-96
2024/01/18 04:56:06;;;;;;;11.65;8.02;;;;;;;-4.60;95.45;99135.03;5002139;28;20022;-95
2024/01/18 04:58:32;;;;;;;13.52;6.72;;;;;;;-4.70;95.02;99125.16;5001845;28;20025;-95
2024/01/18 05:00:58;;;;;;;8.18;4.97;;;;;;;-4.70;94.02;99118.41;5004817;28;20045;-96
2024/01/18 05:03:25;;;;;;;9.40;5.88;;;;;;;-4.72;92.74;99130.19;5006000;28;20085;-96
2024/01/18 05:05:50;;;;;;;7.43;5.20;;;;;;;-4.78;93.96;99128.63;5005186;28;20026;-96
2024/01/18 05:08:16;;;;;;;9.35;5.47;;;;;;;-4.77;94.52;99134.47;5003955;28;20049;-96
2024/01/18 05:10:42;;;;;;;9.02;5.90;;;;;;;-4.84;95.26;99138.78;5003744;28;20026;-96
2024/01/18 05:13:08;;;;;;;11.32;5.80;;;;;;;-4.96;97.05;99138.97;5008118;28;20512;-96
2024/01/18 05:15:33;;;;;;;9.63;5.82;;;;;;;-4.90;96.69;99141.41;5010033;28;20026;-96
2024/01/18 05:17:59;;;;;;;8.82;5.90;;;;;;;-4.97;98.00;99140.66;5013033;28;20386;-96
2024/01/18 05:20:25;;;;;;;8.40;5.32;;;;;;;-4.90;98.22;99143.06;5011151;28;20038;-96
2024/01/18 05:22:51;;;;;;;8.35;4.93;;;;;;;-4.93;98.27;99148.97;5010347;28;20048;-96
2024/01/18 05:25:17;;;;;;;14.18;7.07;;;;;;;-5.12;100.00;99157.66;5011302;28;20022;-96
2024/01/18 05:27:46;;;;;;;16.05;7.75;;;;;;;-5.08;100.00;99172.69;5011525;28;20496;-96
2024/01/18 05:30:15;;;;;;;12.88;7.55;;;;;;;-5.12;100.00;99162.69;5013910;28;20010;-95
2024/01/18 05:32:40;;;;;;;11.98;7.72;;;;;;;-5.06;100.00;99165.13;5012697;28;20053;-96
2024/01/18 05:35:06;;;;;;;12.90;8.23;;;;;;;-4.96;100.00;99184.25;5014910;28;20057;-96
2024/01/18 05:37:32;;;;;;;15.40;9.93;;;;;;;-4.94;100.00;99180.03;5013123;28;20029;-95
2024/01/18 05:40:03;;;;;;;17.70;11.45;;;;;;;-4.91;100.00;99197.59;5013529;28;20081;-96
2024/01/18 05:42:29;;;;;;;15.15;10.23;;;;;;;-4.95;100.00;99185.91;5011185;28;20038;-96
2024/01/18 05:44:55;;;;;;;16.08;10.00;;;;;;;-4.92;100.00;99190.91;5011459;28;20038;-96
2024/01/18 05:47:21;;;;;;;14.70;9.38;;;;;;;-5.11;100.00;99212.16;5011801;28;20026;-96
2024/01/18 05:49:48;;;;;;;15.32;9.13;;;;;;;-5.22;100.00;99213.13;5011054;28;20032;-96
2024/01/18 05:52:24;;;;;;;18.50;9.02;;;;;;;-5.01;100.00;99211.16;5015040;28;20044;-96
2024/01/18 05:54:50;;;;;;;16.42;9.27;;;;;;;-5.02;100.00;99214.56;5017214;28;20017;-96
2024/01/18 05:57:16;;;;;;;15.77;9.88;;;;;;;-5.11;100.00;99214.66;4998908;28;20030;-96
2024/01/18 05:59:44;;;;;;;16.48;10.15;;;;;;;-5.03;100.00;99227.97;5015282;28;20093;-96
2024/01/18 06:02:11;;;;;;;17.35;10.15;;;;;;;-5.11;100.00;99222.22;5014270;28;20030;-96
2024/01/18 06:04:36;;;;;;;17.00;9.77;;;;;;;-5.05;100.00;99240.56;5011190;28;20080;-95
2024/01/18 06:07:03;;;;;;;15.48;9.82;;;;;;;-5.13;100.00;99228.94;5007640;28;20136;-96
2024/01/18 06:09:29;;;;;;;19.33;10.25;;;;;;;-5.14;100.00;99240.69;5010641;28;20049;-95
2024/01/18 06:11:57;;;;;;;17.80;9.15;;;;;;;-5.00;100.00;99240.50;5009752;28;20052;-95
2024/01/18 06:14:26;;;;;;;16.90;10.00;;;;;;;-5.09;100.00;99250.69;5010320;28;20030;-96
2024/01/18 06:16:52;;;;;;;15.48;9.40;;;;;;;-5.06;100.00;99243.09;5010609;28;20022;-95
2024/01/18 06:19:17;;;;;;;15.27;9.20;;;;;;;-4.98;100.00;99246.34;5005280;28;20095;-95
2024/01/18 06:21:43;;;;;;;14.60;9.07;;;;;;;-5.03;100.00;99248.09;5003804;28;20026;-95
2024/01/18 06:24:08;;;;;;;16.00;7.82;;;;;;;-5.18;100.00;99249.94;5004261;28;20496;-95
2024/01/18 06:26:38;;;;;;;8.98;6.85;;;;;;;-5.14;100.00;99258.31;5007460;28;20476;-96
2024/01/18 06:29:04;;;;;;;8.48;5.60;;;;;;;-5.20;100.00;99256.69;5010642;28;20064;-96
2024/01/18 06:31:30;;;;;;;10.25;6.80;;;;;;;-5.19;100.00;99265.09;5008488;28;20463;-96
2024/01/18 06:33:58;;;;;;;10.38;6.95;;;;;;;-5.20;100.00;99266.75;5010083;28;20068;-96
2024/01/18 06:36:24;;;;;;;11.38;6.95;;;;;;;-5.27;100.00;99274.38;5011152;28;20022;-96
2024/01/18 06:38:49;;;;;;;12.38;7.75;;;;;;;-5.34;100.00;99283.69;5016912;28;20034;-96
2024/01/18 06:43:58;;;;;;;12.15;7.68;;;;;;;-5.45;100.00;99286.31;5654965;23;20077;-95
2024/01/18 06:46:24;;;;;;;12.70;7.63;;;;;;;-5.60;100.00;99297.38;5013409;28;20027;-96
2024/01/18 06:51:29;;;;;;;13.32;7.30;;;;;;;-5.43;100.00;99309.78;5128346;22;20083;-95
2024/01/18 06:53:55;;;;;;;10.60;7.25;;;;;;;-5.58;100.00;99314.97;5048735;28;20017;-95
2024/01/18 06:56:20;;;;;;;13.02;7.85;;;;;;;-5.54;100.00;99330.84;5126258;23;20550;-94
2024/01/18 06:58:46;;;;;;;11.05;7.90;;;;;;;-5.57;100.00;99335.91;5004311;28;20022;-96
2024/01/18 07:01:12;;;;;;;12.07;7.55;;;;;;;-5.49;100.00;99329.94;4998018;28;20022;-96
2024/01/18 07:03:37;;;;;;;9.98;6.80;;;;;;;-5.48;100.00;99348.38;4997460;28;20038;-94
2024/01/18 07:06:05;;;;;;;13.85;7.55;;;;;;;-5.42;100.00;99350.81;4999289;28;20034;-96
2024/01/18 07:08:30;;;;;;;9.73;7.88;;;;;;;-5.61;100.00;99351.03;4996895;28;20475;-96
2024/01/18 07:10:57;;;;;;;12.63;7.82;;;;;;;-5.44;100.00;99362.56;4997258;28;20045;-94
2024/01/18 07:13:22;;;;;;;11.10;6.32;;;;;;;-5.38;100.00;99365.03;4995786;28;20030;-94
2024/01/18 07:15:48;;;;;;;11.07;7.88;;;;;;;-5.47;100.00;99367.63;4996816;28;20037;-95
2024/01/18 07:18:13;;;;;;;12.80;7.00;;;;;;;-5.38;100.00;99380.13;4997474;28;20487;-96
2024/01/18 07:20:39;;;;;;;10.90;6.63;;;;;;;-5.38;100.00;99383.47;4998168;28;20013;-95
2024/01/18 07:23:04;;;;;;;12.55;7.20;;;;;;;-5.35;100.00;99377.56;4996868;28;20046;-96
2024/01/18 07:25:30;;;;;;;12.43;6.70;;;;;;;-5.33;100.00;99388.47;4995656;28;20026;-94
2024/01/18 07:27:56;;;;;;;11.18;7.80;;;;;;;-5.37;100.00;99389.31;4997530;28;20094;-96
2024/01/18 07:30:22;;;;;;;14.80;7.82;;;;;;;-5.36;100.00;99403.59;4998743;28;20550;-96
2024/01/18 07:32:48;;;;;;;11.05;7.60;;;;;;;-5.32;100.00;99402.69;5000105;28;20034;-96
2024/01/18 07:35:16;;;;;;;10.95;7.28;;;;;;;-5.33;100.00;99405.22;4999255;28;20515;-96
2024/01/18 07:37:42;;;;;;;10.35;6.90;;;;;;;-5.27;100.00;99392.59;4998310;28;20468;-96
2024/01/18 07:40:08;;;;;;;10.73;7.43;;;;;;;-5.29;100.00;99397.66;4999684;28;20122;-95
2024/01/18 07:42:35;;;;;;;13.38;6.72;;;;;;;-5.25;100.00;99423.59;5004907;28;20038;-96
2024/01/18 07:45:01;;;;;;;10.25;6.75;;;;;;;-5.20;100.00;99425.19;5002329;28;20034;-96
2024/01/18 07:47:26;;;;;;;10.77;6.85;;;;;;;-5.33;100.00;99416.13;4996570;28;20133;-96
2024/01/18 07:49:52;;;;;;;10.27;6.70;;;;;;;-5.19;100.00;99423.53;4997318;28;20022;-96
2024/01/18 07:52:20;;;;;;;8.70;7.03;;;;;;;-5.21;100.00;99425.25;4996894;28;20037;-94
2024/01/18 07:54:46;;;;;;;12.10;8.00;;;;;;;-5.14;100.00;99433.53;4996876;28;20026;-94
2024/01/18 07:57:12;;;;;;;11.45;6.60;;;;;;;-5.14;100.00;99434.38;4998619;28;20036;-94
2024/01/18 07:59:38;;;;;;;11.35;6.82;;;;;;;-5.26;100.00;99442.06;4996552;28;20041;-94
2024/01/18 08:02:03;;;;;;;9.50;6.50;;;;;;;-5.30;100.00;99433.69;4999979;28;20066;-94
2024/01/18 08:04:32;;;;;;;9.95;6.10;;;;;;;-5.28;100.00;99446.25;4997403;28;20118;-96
2024/01/18 08:06:57;;;;;;;10.63;6.55;;;;;;;-5.31;100.00;99454.66;4995838;28;20022;-95
2024/01/18 08:09:22;;;;;;;10.77;6.45;;;;;;;-5.21;100.00;99458.75;4996455;28;20442;-91
2024/01/18 08:11:58;;;;;;;9.82;6.65;;;;;;;-5.04;100.00;99472.88;4994348;28;20037;-96
2024/01/18 08:14:23;;;;;;;8.85;6.43;;;;;;;-5.09;100.00;99464.53;5079766;23;20053;-96
2024/01/18 08:16:49;;;;;;;12.27;7.35;;;;;;;-5.07;100.00;99477.91;4997667;28;20034;-92
2024/01/18 08:19:14;;;;;;;10.02;6.35;;;;;;;-5.03;100.00;99489.63;5098140;22;20057;-92
2024/01/18 08:21:45;;;;;;;8.23;5.40;;;;;;;-4.98;100.00;99497.97;5036037;28;20421;-93
2024/01/18 08:24:11;;;;;;;12.77;5.40;;;;;;;-4.93;100.00;99506.28;5016749;28;20033;-92
2024/01/18 08:26:36;;;;;;;7.65;4.25;;;;;;;-4.82;100.00;99512.06;5044514;28;20377;-91
2024/01/18 08:29:02;;;;;;;5.53;2.90;;;;;;;-4.76;100.00;99517.03;5017454;28;20062;-94
2024/01/18 08:31:28;;;;;;;5.75;2.80;;;;;;;-4.72;100.00;99517.03;5016261;28;20024;-92
2024/01/18 08:33:53;;;;;;;5.30;3.03;;;;;;;-4.65;100.00;99521.16;5020435;28;20029;-91
2024/01/18 08:36:19;;;;;;;5.18;3.00;;;;;;;-4.62;100.00;99518.59;5035156;28;20484;-93
2024/01/18 08:38:45;;;;;;;8.07;3.22;;;;;;;-4.57;100.00;99522.72;5035400;28;20034;-92
2024/01/18 08:41:10;;;;;;;3.95;2.45;;;;;;;-4.54;100.00;99527.72;5036073;28;20025;-92
2024/01/18 08:43:36;;;;;;;3.60;2.80;;;;;;;-4.44;100.00;99528.44;5034962;28;20100;-91
2024/01/18 08:46:06;;;;;;;10.27;5.05;;;;;;;-4.33;100.00;99534.22;5036177;28;20021;-91
2024/01/18 08:48:32;;;;;;;14.25;8.45;;;;;;;-4.34;100.00;99545.16;5035947;28;20133;-92
2024/01/18 08:50:57;;;;;;;13.18;8.93;;;;;;;-4.30;100.00;99544.25;5045586;28;20534;-93
2024/01/18 08:53:22;;;;;;;11.68;7.88;;;;;;;-4.21;100.00;99550.88;5057235;28;20033;-95
2024/01/18 08:55:48;;;;;;;19.00;8.48;;;;;;;-4.16;100.00;99548.31;5057381;28;20501;-94
2024/01/18 08:58:13;;;;;;;13.73;8.30;;;;;;;-4.18;100.00;99547.47;5055630;28;20394;-92
2024/01/18 09:00:39;;;;;;;15.60;9.40;;;;;;;-4.13;100.00;99568.41;5055477;28;20017;-92
2024/01/18 09:03:04;;;;;;;14.05;9.10;;;;;;;-4.12;100.00;99567.56;5054381;28;20059;-92
2024/01/18 09:05:30;;;;;;;14.32;8.32;;;;;;;-4.04;100.00;99570.00;5043370;28;20061;-91
2024/01/18 09:07:57;;;;;;;13.82;8.43;;;;;;;-3.91;100.00;99577.38;5034082;28;20114;-93
2024/01/18 09:10:22;;;;;;;15.52;9.25;;;;;;;-3.66;100.00;99577.91;5033866;28;20040;-92
2024/01/18 09:12:48;;;;;;;12.65;8.20;;;;;;;-3.63;100.00;99592.19;5036111;28;20376;-92
2024/01/18 09:15:14;;;;;;;12.45;8.48;;;;;;;-3.70;100.00;99591.41;5034605;28;20013;-93
2024/01/18 09:17:41;;;;;;;12.63;7.20;;;;;;;-3.73;100.00;99583.91;5035979;28;20582;-91
2024/01/18 09:20:07;;;;;;;11.77;7.15;;;;;;;-3.72;100.00;99592.28;5034734;28;20040;-95
2024/01/18 09:22:32;;;;;;;10.93;5.82;;;;;;;-3.66;100.00;99597.22;5034819;28;20163;-93
2024/01/18 09:24:58;;;;;;;5.97;4.32;;;;;;;-3.47;100.00;99602.88;5035945;28;20116;-93
2024/01/18 09:27:24;;;;;;;7.50;4.32;;;;;;;-3.49;100.00;99605.44;5149360;22;20053;-91
2024/01/18 09:29:49;;;;;;;7.07;3.53;;;;;;;-3.33;100.00;99601.00;5036470;28;20700;-92
2024/01/18 09:32:15;;;;;;;5.88;3.55;;;;;;;-3.26;100.00;99606.78;5032642;28;20025;-93
2024/01/18 09:34:41;;;;;;;6.63;4.30;;;;;;;-3.18;100.00;99612.56;5033766;28;20029;-92
2024/01/18 09:37:06;;;;;;;5.80;3.90;;;;;;;-2.98;100.00;99616.47;5032867;28;20423;-91
2024/01/18 09:39:31;;;;;;;4.38;3.55;;;;;;;-2.92;100.00;99617.22;5024057;28;20058;-91
2024/01/18 09:41:57;;;;;;;11.45;4.25;;;;;;;-2.86;100.00;99616.28;5014798;28;20044;-92
2024/01/18 09:44:27;;;;;;;8.57;3.67;;;;;;;-2.64;100.00;99622.63;5014789;28;20449;-93
2024/01/18 09:46:54;;;;;;;6.32;3.58;;;;;;;-2.57;100.00;99620.84;5013724;28;20026;-92
2024/01/18 09:49:19;;;;;;;6.25;3.35;;;;;;;-2.53;100.00;99629.22;5014862;28;20495;-91
2024/01/18 09:51:46;;;;;;;6.32;3.40;;;;;;;-2.40;100.00;99625.63;5014098;28;20034;-91
2024/01/18 09:54:12;;;;;;;5.45;3.10;;;;;;;-2.27;100.00;99632.09;5013432;28;20029;-92
2024/01/18 09:56:45;;;;;;;3.42;2.53;;;;;;;-2.08;100.00;99647.78;5013555;28;20076;-89
2024/01/18 09:59:18;;;;;;;4.43;3.00;;;;;;;-1.96;100.00;99656.84;5014435;28;20058;-90
2024/01/18 10:01:44;;;;;;;6.07;2.67;;;;;;;-1.72;100.00;99669.00;5012905;28;20492;-91
2024/01/18 10:04:14;;;;;;;6.53;2.83;;;;;;;-1.28;100.00;99680.78;5014747;28;20025;-91
2024/01/18 10:06:43;;;;;;;7.97;3.67;;;;;;;-1.03;100.00;99679.38;5012124;28;20092;-91
2024/01/18 10:09:15;;;;;;;9.30;3.28;;;;;;;-0.98;100.00;99675.03;5014765;28;20065;-92
2024/01/18 10:11:44;;;;;;;7.82;4.18;;;;;;;-0.78;100.00;99683.88;5013246;28;20032;-91
2024/01/18 10:14:09;;;;;;;8.75;3.78;;;;;;;0.01;95.68;99688.72;5014121;28;20032;-92
2024/01/18 10:16:39;;;;;;;7.20;4.45;;;;;;;-0.05;93.68;99689.72;5014915;28;20017;-94
2024/01/18 10:19:14;;;;;;;6.20;3.40;;;;;;;0.67;89.58;99693.69;5013808;28;20045;-93
2024/01/18 10:21:41;;;;;;;8.80;3.75;;;;;;;1.19;81.02;99698.03;5019379;28;20037;-94
2024/01/18 10:24:11;;;;;;;9.18;4.90;;;;;;;1.36;83.46;99714.47;5016986;28;20030;-88
2024/01/18 10:26:36;;;;;;;8.38;3.78;;;;;;;2.33;76.74;99712.09;5013446;28;20120;-91
2024/01/18 10:29:02;;;;;;;8.68;4.53;;;;;;;3.56;69.20;99725.31;5012308;28;20109;-91
2024/01/18 10:31:28;;;;;;;9.35;4.65;;;;;;;2.53;70.57;99722.41;5013814;28;20029;-89
2024/01/18 10:33:54;;;;;;;9.23;3.35;;;;;;;2.02;73.03;99720.78;5013583;28;20128;-91
2024/01/18 10:36:20;;;;;;;5.00;3.45;;;;;;;1.89;75.82;99734.81;5011819;28;20487;-92
2024/01/18 10:38:45;;;;;;;14.15;6.72;;;;;;;3.25;71.26;99741.84;5012363;28;20030;-92
2024/01/18 10:41:11;;;;;;;7.32;4.28;;;;;;;3.26;68.17;99743.50;5012924;28;20026;-91
2024/01/18 10:43:37;;;;;;;5.35;3.47;;;;;;;4.26;66.17;99753.06;5012332;28;20029;-91
2024/01/18 10:46:04;;;;;;;8.48;3.75;;;;;;;4.69;61.97;99751.19;5011986;28;20381;-91
2024/01/18 10:48:30;;;;;;;15.20;4.82;;;;;;;4.70;61.73;99757.97;5011916;28;20360;-91
2024/01/18 10:50:57;;;;;;;6.97;3.63;;;;;;;5.34;60.37;99768.72;5012682;28;20100;-92
2024/01/18 10:53:24;;;;;;;6.80;3.03;;;;;;;6.42;56.65;99757.50;5011586;28;20026;-91
2024/01/18 10:55:51;;;;;;;6.05;3.03;;;;;;;7.13;55.13;99768.38;5013242;28;20032;-91
2024/01/18 10:58:17;;;;;;;6.35;3.25;;;;;;;8.47;51.55;99775.34;5012085;28;20022;-91
2024/01/18 11:00:43;;;;;;;8.32;3.83;;;;;;;8.44;51.52;99782.44;5013321;28;20029;-91
2024/01/18 11:03:09;;;;;;;11.55;3.65;;;;;;;7.92;51.74;99781.09;5013417;28;20030;-92
2024/01/18 11:05:36;;;;;;;6.05;2.50;;;;;;;8.30;50.50;99780.63;5011834;28;20026;-92
2024/01/18 11:08:05;;;;;;;3.47;2.10;;;;;;;7.57;51.30;99790.78;5013598;28;20048;-92
2024/01/18 11:10:31;;;;;;;11.15;2.63;;;;;;;7.85;51.15;99790.06;5011835;28;20041;-91
2024/01/18 11:12:57;;;;;;;8.45;3.08;;;;;;;7.81;50.31;99786.03;5012846;28;20057;-92
2024/01/18 11:15:23;;;;;;;7.70;2.78;;;;;;;7.78;51.48;99793.88;5011828;28;20480;-92
2024/01/18 11:17:54;;;;;;;6.30;2.50;;;;;;;7.34;51.01;99802.28;5012847;28;20037;-92
2024/01/18 11:20:20;;;;;;;5.00;2.70;;;;;;;5.76;54.75;99808.59;5011578;28;20027;-91
2024/01/18 11:22:46;;;;;;;4.82;2.22;;;;;;;4.39;58.64;99818.94;5012622;28;20026;-92
2024/01/18 11:25:18;;;;;;;6.72;2.83;;;;;;;5.45;57.36;99822.81;5012910;28;20535;-92
2024/01/18 11:27:44;;;;;;;7.32;2.53;;;;;;;6.37;55.56;99818.44;5012661;28;20092;-93